Time;durP1;ratioP1;P1;durP2;ratioP2;P2;SDS_P1;SDS_P2;PMS_P1;PMS_P2;Temp;Humidity;BMP_temperature;BMP_pressure;BME280_temperature;BME280_humidity;BME280_pressure;Samples;Min_cycle;Max_cycle;Signal;HPM_P1;HPM_P2
2023/03/19 00:00:16;;;;;;;10.02;5.20;;;10.90;99.90;;;;;;2077394;28;20037;-74
2023/03/19 00:01:17;;;;;;;8.77;4.13;;;10.90;99.90;;;;;;2074444;28;20022;-73
2023/03/19 00:02:17;;;;;;;8.88;3.72;;;11.00;99.90;;;;;;2074729;28;20022;-74
2023/03/19 00:03:18;;;;;;;9.30;3.38;;;11.00;99.90;;;;;;2074419;28;20033;-73
2023/03/19 00:04:19;;;;;;;7.07;3.63;;;11.00;99.90;;;;;;2074481;28;20504;-73
2023/03/19 00:05:19;;;;;;;9.40;3.92;;;11.00;99.90;;;;;;2076868;28;20025;-73
2023/03/19 00:06:20;;;;;;;7.00;3.75;;;11.00;99.90;;;;;;2073834;28;20056;-73
2023/03/19 00:07:20;;;;;;;8.80;4.68;;;11.00;99.90;;;;;;2073163;28;20478;-73
2023/03/19 00:08:21;;;;;;;8.05;3.80;;;11.10;99.90;;;;;;2073171;28;20032;-73
2023/03/19 00:09:22;;;;;;;8.82;3.80;;;11.10;99.90;;;;;;2073165;28;20112;-73
2023/03/19 00:10:22;;;;;;;5.95;3.67;;;11.10;99.90;;;;;;2074881;28;20030;-73
2023/03/19 00:11:23;;;;;;;6.35;3.75;;;11.20;99.90;;;;;;2073851;28;20053;-73
2023/03/19 00:12:23;;;;;;;9.57;3.95;;;11.10;99.90;;;;;;2075050;28;20108;-73
2023/03/19 00:13:24;;;;;;;4.90;3.38;;;11.20;99.90;;;;;;2074045;28;20026;-73
2023/03/19 00:14:24;;;;;;;9.57;4.30;;;11.20;99.90;;;;;;2074124;28;20022;-73
2023/03/19 00:15:25;;;;;;;21.85;12.70;;;11.20;99.90;;;;;;2073396;28;20871;-73
2023/03/19 00:16:26;;;;;;;41.58;22.40;;;11.20;99.90;;;;;;2073463;28;20065;-73
2023/03/19 00:17:26;;;;;;;23.00;11.43;;;11.30;99.90;;;;;;2074314;28;20585;-73
2023/03/19 00:18:27;;;;;;;10.63;6.57;;;11.20;99.90;;;;;;2073843;28;20033;-73
2023/03/19 00:19:28;;;;;;;11.65;5.25;;;11.30;99.90;;;;;;2078326;28;20100;-73
2023/03/19 00:20:28;;;;;;;8.48;4.32;;;11.30;99.90;;;;;;2077850;28;20112;-73
2023/03/19 00:21:30;;;;;;;6.30;3.55;;;11.30;99.90;;;;;;2074695;28;20048;-73
2023/03/19 00:22:30;;;;;;;6.18;3.47;;;11.30;99.90;;;;;;2073574;28;20112;-73
2023/03/19 00:23:31;;;;;;;5.10;3.25;;;11.40;99.90;;;;;;2073310;28;20055;-73
2023/03/19 00:24:32;;;;;;;4.70;2.92;;;11.40;99.90;;;;;;2075682;28;20028;-73
2023/03/19 00:25:32;;;;;;;5.18;2.85;;;11.40;99.90;;;;;;2075065;28;20503;-73
2023/03/19 00:26:33;;;;;;;4.40;3.00;;;11.40;99.90;;;;;;2075946;28;20060;-73
2023/03/19 00:27:36;;;;;;;6.72;3.17;;;11.40;99.90;;;;;;2074365;28;20117;-73
2023/03/19 00:28:36;;;;;;;5.68;3.05;;;11.40;99.90;;;;;;2075952;28;20033;-73
2023/03/19 00:29:37;;;;;;;6.88;3.40;;;11.40;99.90;;;;;;2074492;28;20553;-73
2023/03/19 00:30:37;;;;;;;5.30;3.20;;;11.40;99.90;;;;;;2074266;28;20034;-73
2023/03/19 00:31:39;;;;;;;4.13;2.67;;;11.50;99.90;;;;;;2077301;28;20097;-73
2023/03/19 00:32:40;;;;;;;6.93;3.17;;;11.50;99.90;;;;;;2076673;28;20496;-73
2023/03/19 00:33:41;;;;;;;4.90;3.42;;;11.50;99.90;;;;;;2076091;28;20481;-73
2023/03/19 00:34:42;;;;;;;6.43;3.10;;;11.50;99.90;;;;;;2074015;28;20044;-73
2023/03/19 00:35:43;;;;;;;5.13;3.10;;;11.50;99.90;;;;;;2078680;28;20124;-73
2023/03/19 00:36:44;;;;;;;9.60;5.25;;;11.50;99.90;;;;;;2079234;28;20038;-73
2023/03/19 00:37:45;;;;;;;7.18;4.10;;;11.50;99.90;;;;;;2075159;28;20071;-73
2023/03/19 00:38:46;;;;;;;7.30;4.03;;;11.50;99.90;;;;;;2073072;28;20083;-73
2023/03/19 00:39:46;;;;;;;4.07;3.13;;;11.50;99.90;;;;;;2073048;28;20054;-73
2023/03/19 00:40:47;;;;;;;4.95;2.88;;;11.50;99.90;;;;;;2074148;28;21600;-73
2023/03/19 00:41:49;;;;;;;5.60;3.30;;;11.60;99.90;;;;;;2076448;28;20088;-73
2023/03/19 00:42:49;;;;;;;3.42;2.80;;;11.60;99.90;;;;;;2074183;28;20076;-73
2023/03/19 00:43:57;;;;;;;8.60;3.28;;;11.60;99.90;;;;;;2074240;28;20022;-73
2023/03/19 00:44:57;;;;;;;6.03;3.25;;;11.60;99.90;;;;;;2075079;28;20036;-74
2023/03/19 00:45:59;;;;;;;6.32;2.90;;;11.60;99.90;;;;;;2075406;28;20663;-73
2023/03/19 00:46:59;;;;;;;6.53;2.85;;;11.60;99.90;;;;;;2075775;28;20029;-73
2023/03/19 00:48:00;;;;;;;6.53;2.50;;;11.60;99.90;;;;;;2076328;28;20029;-73
2023/03/19 00:49:00;;;;;;;6.57;2.95;;;11.60;99.90;;;;;;2076108;28;20041;-73
2023/03/19 00:50:03;;;;;;;3.83;2.65;;;11.60;99.90;;;;;;2075899;28;20051;-73
2023/03/19 00:51:06;;;;;;;5.95;3.20;;;11.60;99.90;;;;;;2075176;28;20038;-73
2023/03/19 00:52:07;;;;;;;8.52;3.40;;;11.60;99.90;;;;;;2074587;28;20075;-73
2023/03/19 00:53:07;;;;;;;4.30;2.75;;;11.70;99.90;;;;;;2076598;28;20122;-73
2023/03/19 00:54:10;;;;;;;6.13;3.25;;;11.60;99.90;;;;;;2073360;28;20087;-73
2023/03/19 00:55:10;;;;;;;5.75;3.13;;;11.70;99.90;;;;;;2074570;28;20152;-73
2023/03/19 00:56:13;;;;;;;4.38;3.33;;;11.70;99.90;;;;;;2074506;28;20025;-73
2023/03/19 00:57:13;;;;;;;5.75;2.88;;;11.70;99.90;;;;;;2074283;28;20485;-73
2023/03/19 00:58:14;;;;;;;7.78;3.67;;;11.70;99.90;;;;;;2074692;28;20747;-73
2023/03/19 00:59:15;;;;;;;8.02;4.75;;;11.80;99.90;;;;;;2073235;28;20017;-74
2023/03/19 01:00:16;;;;;;;25.27;11.60;;;11.80;99.90;;;;;;2075233;28;20024;-73
2023/03/19 01:01:17;;;;;;;27.55;11.50;;;11.80;99.90;;;;;;2074425;28;20599;-73
2023/03/19 01:02:18;;;;;;;22.25;10.82;;;11.80;99.90;;;;;;2074770;28;20485;-73
2023/03/19 01:03:18;;;;;;;16.38;9.07;;;11.80;99.90;;;;;;2075481;28;20398;-73
2023/03/19 01:04:19;;;;;;;20.67;10.05;;;11.80;99.90;;;;;;2073932;28;20044;-73
2023/03/19 01:05:20;;;;;;;23.63;11.95;;;11.80;99.90;;;;;;2067357;28;20025;-74
2023/03/19 01:06:20;;;;;;;67.88;30.10;;;11.80;99.90;;;;;;2072784;28;20018;-74
2023/03/19 01:07:21;;;;;;;50.35;22.67;;;11.80;99.90;;;;;;2075383;28;20485;-73
2023/03/19 01:08:25;;;;;;;33.50;16.10;;;11.80;99.90;;;;;;2076060;28;20457;-74
2023/03/19 01:09:25;;;;;;;29.73;14.27;;;11.80;99.90;;;;;;2080199;28;20026;-73
2023/03/19 01:10:26;;;;;;;98.30;45.85;;;11.80;99.90;;;;;;2083175;28;20071;-74
2023/03/19 01:11:27;;;;;;;95.72;47.63;;;11.80;99.90;;;;;;2082375;28;20108;-73
2023/03/19 01:12:27;;;;;;;54.05;25.90;;;11.80;99.90;;;;;;2083691;28;20029;-73
2023/03/19 01:13:28;;;;;;;41.58;20.50;;;11.80;99.90;;;;;;2072792;28;20052;-73
2023/03/19 01:14:29;;;;;;;21.33;10.40;;;11.80;99.90;;;;;;2080475;28;20531;-74
2023/03/19 01:15:29;;;;;;;12.15;7.13;;;11.80;99.90;;;;;;2080783;28;20554;-74
2023/03/19 01:16:30;;;;;;;17.80;8.15;;;11.80;99.90;;;;;;2073142;28;20478;-73
2023/03/19 01:17:30;;;;;;;7.57;5.65;;;11.80;99.90;;;;;;2074860;28;20416;-73
2023/03/19 01:18:31;;;;;;;8.38;4.35;;;11.80;99.90;;;;;;2074199;28;20513;-73
2023/03/19 01:19:32;;;;;;;7.10;3.47;;;11.80;99.90;;;;;;2073801;28;20458;-73
2023/03/19 01:20:33;;;;;;;8.32;4.00;;;11.80;99.90;;;;;;2073427;28;20014;-74
2023/03/19 01:21:35;;;;;;;4.80;3.45;;;11.80;99.90;;;;;;2071905;28;20021;-73
2023/03/19 01:22:36;;;;;;;8.20;4.13;;;11.80;99.90;;;;;;2065474;28;20153;-73
2023/03/19 01:23:37;;;;;;;13.15;7.80;;;11.80;99.90;;;;;;2074239;28;20026;-73
2023/03/19 01:24:37;;;;;;;10.40;6.43;;;11.80;99.90;;;;;;2072436;28;20061;-74
2023/03/19 01:25:38;;;;;;;14.27;8.10;;;11.80;99.90;;;;;;2073682;28;20044;-73
2023/03/19 01:26:39;;;;;;;12.48;7.50;;;11.80;99.90;;;;;;2074764;28;20156;-74
2023/03/19 01:27:39;;;;;;;13.18;6.32;;;11.80;99.90;;;;;;2076861;28;20682;-73
2023/03/19 01:28:40;;;;;;;9.52;5.10;;;11.70;99.90;;;;;;2078024;28;20037;-74
2023/03/19 01:29:40;;;;;;;8.07;4.85;;;11.70;99.90;;;;;;2075685;28;20079;-74
2023/03/19 01:30:41;;;;;;;8.25;5.35;;;11.70;99.90;;;;;;2075252;28;20134;-74
2023/03/19 01:31:41;;;;;;;12.20;6.88;;;11.70;99.90;;;;;;2076929;28;20089;-73
2023/03/19 01:32:42;;;;;;;10.60;6.35;;;11.70;99.90;;;;;;2077716;28;20044;-73
2023/03/19 01:33:42;;;;;;;9.82;5.90;;;11.70;99.90;;;;;;2076147;28;20030;-73
2023/03/19 01:34:43;;;;;;;15.07;8.20;;;11.70;99.90;;;;;;2078734;28;20354;-73
2023/03/19 01:35:46;;;;;;;13.38;7.45;;;11.70;99.90;;;;;;2081716;28;20763;-73
2023/03/19 01:36:47;;;;;;;11.00;7.30;;;11.70;99.90;;;;;;2075601;28;20029;-73
2023/03/19 01:37:48;;;;;;;11.45;7.75;;;11.60;99.90;;;;;;2077654;28;20136;-73
2023/03/19 01:38:48;;;;;;;11.38;7.25;;;11.60;99.90;;;;;;2078531;28;20037;-74
2023/03/19 01:39:49;;;;;;;11.30;6.80;;;11.60;99.90;;;;;;2074536;28;20153;-73
2023/03/19 01:40:51;;;;;;;10.18;6.95;;;11.60;99.90;;;;;;2077282;28;20611;-74
2023/03/19 01:41:51;;;;;;;11.57;6.50;;;11.60;99.90;;;;;;2077195;28;20590;-73
2023/03/19 01:43:11;;;;;;;8.38;5.63;;;11.50;99.90;;;;;;2073592;28;20021;-73
2023/03/19 01:44:33;;;;;;;8.30;5.13;;;11.50;99.90;;;;;;2077771;28;20025;-74
2023/03/19 01:45:36;;;;;;;8.93;6.07;;;11.50;99.90;;;;;;2076861;28;20029;-73
2023/03/19 01:46:38;;;;;;;7.75;4.43;;;11.40;99.90;;;;;;2074915;28;20092;-73
2023/03/19 01:47:41;;;;;;;8.48;3.75;;;11.40;99.90;;;;;;2077741;28;20049;-73
2023/03/19 01:48:52;;;;;;;9.57;6.40;;;11.40;99.90;;;;;;2076130;28;20037;-73
2023/03/19 01:49:54;;;;;;;10.52;6.07;;;11.40;99.90;;;;;;2076586;28;20108;-73
2023/03/19 01:50:56;;;;;;;9.40;5.88;;;11.40;99.90;;;;;;2082967;28;20033;-73
2023/03/19 01:51:59;;;;;;;9.50;5.82;;;11.40;99.90;;;;;;2082228;28;20068;-74
2023/03/19 01:53:00;;;;;;;7.40;5.00;;;11.40;99.90;;;;;;2075229;28;20531;-74
2023/03/19 01:54:14;;;;;;;7.95;5.13;;;11.30;99.90;;;;;;2075789;28;20112;-73
2023/03/19 01:55:15;;;;;;;7.68;4.65;;;11.30;99.90;;;;;;2076472;28;20039;-73
2023/03/19 01:56:22;;;;;;;8.52;4.70;;;11.30;99.90;;;;;;2075049;28;20033;-73
2023/03/19 01:57:24;;;;;;;6.63;4.20;;;11.30;99.90;;;;;;2074910;28;20017;-73
2023/03/19 01:58:25;;;;;;;4.38;3.67;;;11.30;99.90;;;;;;2074915;28;20144;-73
2023/03/19 01:59:33;;;;;;;5.05;3.58;;;11.30;99.90;;;;;;2073400;28;20026;-74
2023/03/19 02:00:37;;;;;;;7.03;3.95;;;11.20;99.90;;;;;;2071247;28;20018;-72
2023/03/19 02:01:48;;;;;;;6.07;4.30;;;11.20;99.90;;;;;;2078432;28;20120;-72
2023/03/19 02:02:52;;;;;;;8.05;4.22;;;11.20;99.90;;;;;;2074073;28;20112;-72
2023/03/19 02:03:54;;;;;;;12.88;7.25;;;11.20;99.90;;;;;;2075656;28;20025;-72
2023/03/19 02:05:01;;;;;;;15.93;9.18;;;11.10;99.90;;;;;;2075916;28;20049;-72
2023/03/19 02:06:02;;;;;;;43.60;25.20;;;11.20;99.90;;;;;;2076059;28;20033;-72
2023/03/19 02:07:04;;;;;;;18.92;11.10;;;11.10;99.90;;;;;;2074691;28;20386;-72
2023/03/19 02:08:09;;;;;;;17.20;10.65;;;11.10;99.90;;;;;;2075474;28;20412;-72
2023/03/19 02:09:10;;;;;;;21.52;10.23;;;11.10;99.90;;;;;;2075139;28;20417;-72
2023/03/19 02:10:16;;;;;;;10.52;7.30;;;11.10;99.90;;;;;;2074884;28;20636;-72
2023/03/19 02:11:18;;;;;;;17.42;10.93;;;11.00;99.90;;;;;;2075359;28;20047;-72
2023/03/19 02:12:18;;;;;;;16.70;8.48;;;11.00;99.90;;;;;;2074690;28;20075;-72
2023/03/19 02:13:19;;;;;;;12.35;7.88;;;11.00;99.90;;;;;;2074532;28;20068;-72
2023/03/19 02:14:20;;;;;;;22.60;14.70;;;11.00;99.90;;;;;;2074655;28;20538;-72
2023/03/19 02:15:20;;;;;;;36.35;20.88;;;11.00;99.90;;;;;;2074324;28;20029;-72
2023/03/19 02:16:21;;;;;;;19.67;11.82;;;11.00;99.90;;;;;;2074664;28;20030;-72
2023/03/19 02:17:22;;;;;;;28.50;15.95;;;10.90;99.90;;;;;;2074125;28;20030;-72
2023/03/19 02:18:24;;;;;;;30.15;16.95;;;10.90;99.90;;;;;;2075014;28;20025;-72
2023/03/19 02:19:48;;;;;;;27.48;16.80;;;10.90;99.90;;;;;;2075261;28;20060;-72
2023/03/19 02:20:54;;;;;;;50.65;24.60;;;10.90;99.90;;;;;;2075317;28;20177;-72
2023/03/19 02:21:55;;;;;;;55.38;26.15;;;10.80;99.90;;;;;;2075758;28;20105;-72
2023/03/19 02:23:15;;;;;;;45.97;21.35;;;10.80;99.90;;;;;;2074507;28;20112;-72
2023/03/19 02:24:25;;;;;;;32.45;16.20;;;10.80;99.90;;;;;;2075105;28;20036;-72
2023/03/19 02:25:43;;;;;;;40.05;21.80;;;10.70;99.90;;;;;;2074064;28;20021;-73
2023/03/19 02:26:46;;;;;;;73.60;37.40;;;10.70;99.90;;;;;;2074874;28;20040;-72
2023/03/19 02:27:46;;;;;;;62.35;31.02;;;10.70;99.90;;;;;;2075349;28;20045;-72
2023/03/19 02:28:49;;;;;;;63.97;31.00;;;10.60;99.90;;;;;;2066658;28;20556;-72
2023/03/19 02:29:49;;;;;;;61.55;31.48;;;10.70;99.90;;;;;;2073612;28;20030;-72
2023/03/19 02:30:50;;;;;;;81.95;35.97;;;10.60;99.90;;;;;;2074809;28;20034;-72
2023/03/19 02:31:51;;;;;;;77.10;39.05;;;10.60;99.90;;;;;;2076334;28;20034;-72
2023/03/19 02:32:52;;;;;;;67.85;33.95;;;10.60;99.90;;;;;;2076079;28;20068;-72
2023/03/19 02:34:01;;;;;;;69.13;34.80;;;10.60;99.90;;;;;;2075620;28;20034;-72
2023/03/19 02:35:01;;;;;;;68.35;37.08;;;10.60;99.90;;;;;;2075562;28;20033;-72
2023/03/19 02:36:05;;;;;;;75.80;37.28;;;10.60;99.90;;;;;;2077817;28;20124;-72
2023/03/19 02:37:11;;;;;;;74.82;39.13;;;10.60;99.90;;;;;;2077650;28;20033;-72
2023/03/19 02:38:14;;;;;;;63.83;31.00;;;10.60;99.90;;;;;;2075193;28;20554;-72
2023/03/19 02:39:22;;;;;;;54.80;32.22;;;10.60;99.90;;;;;;2073484;28;20026;-72
2023/03/19 02:40:28;;;;;;;50.97;26.70;;;10.60;99.90;;;;;;2073078;28;20429;-72
2023/03/19 02:41:30;;;;;;;41.45;23.65;;;10.50;99.90;;;;;;2075313;28;20112;-72
2023/03/19 02:42:31;;;;;;;38.42;21.77;;;10.50;99.90;;;;;;2073407;28;20109;-72
2023/03/19 02:43:34;;;;;;;47.10;22.58;;;10.50;99.90;;;;;;2083565;28;20028;-72
2023/03/19 02:44:34;;;;;;;40.83;22.17;;;10.40;99.90;;;;;;2077853;28;20035;-72
2023/03/19 02:45:35;;;;;;;39.90;20.67;;;10.50;99.90;;;;;;2077795;28;20029;-72
2023/03/19 02:46:35;;;;;;;29.05;16.33;;;10.50;99.90;;;;;;2083205;28;20566;-72
2023/03/19 02:47:36;;;;;;;32.08;16.55;;;10.50;99.90;;;;;;2074483;28;20126;-72
2023/03/19 02:48:37;;;;;;;25.95;15.60;;;10.40;99.90;;;;;;2074508;28;20132;-72
2023/03/19 02:49:37;;;;;;;23.30;13.02;;;10.40;99.90;;;;;;2075961;28;20039;-72
2023/03/19 02:50:38;;;;;;;26.63;16.25;;;10.40;99.90;;;;;;2074124;28;20032;-72
2023/03/19 02:51:38;;;;;;;52.92;27.73;;;10.40;99.90;;;;;;2075839;28;20025;-72
2023/03/19 02:52:39;;;;;;;35.13;19.23;;;10.40;99.90;;;;;;2076414;28;20600;-72
2023/03/19 02:53:39;;;;;;;42.35;23.67;;;10.40;99.90;;;;;;2077650;28;20029;-72
2023/03/19 02:54:40;;;;;;;29.25;14.05;;;10.40;99.90;;;;;;2075826;28;20030;-72
2023/03/19 02:55:41;;;;;;;50.97;28.95;;;10.30;99.90;;;;;;2078877;28;20029;-72
2023/03/19 02:56:42;;;;;;;65.82;36.78;;;10.30;99.90;;;;;;2076194;28;20036;-72
2023/03/19 02:57:44;;;;;;;47.22;25.17;;;10.30;99.90;;;;;;2075389;28;20694;-72
2023/03/19 02:58:45;;;;;;;48.35;26.65;;;10.30;99.90;;;;;;2074863;28;20037;-72
2023/03/19 02:59:45;;;;;;;34.63;19.13;;;10.30;99.90;;;;;;2074159;28;20030;-72
2023/03/19 03:00:46;;;;;;;25.90;14.57;;;10.30;99.90;;;;;;2076314;28;20787;-72
2023/03/19 03:01:46;;;;;;;18.02;10.93;;;10.30;99.90;;;;;;2082403;28;20145;-72
2023/03/19 03:02:47;;;;;;;19.08;12.45;;;10.30;99.90;;;;;;2080944;28;20157;-72
2023/03/19 03:03:47;;;;;;;17.73;10.40;;;10.30;99.90;;;;;;2074880;28;20021;-72
2023/03/19 03:04:48;;;;;;;19.90;11.02;;;10.30;99.90;;;;;;2072497;28;20036;-72
2023/03/19 03:05:48;;;;;;;18.33;9.77;;;10.30;99.90;;;;;;2074471;28;20037;-72
2023/03/19 03:06:49;;;;;;;15.25;10.32;;;10.30;99.90;;;;;;2074979;28;20026;-72
2023/03/19 03:07:50;;;;;;;21.23;11.88;;;10.30;99.90;;;;;;2075242;28;20034;-72
2023/03/19 03:08:50;;;;;;;11.07;7.60;;;10.30;99.90;;;;;;2074487;28;20021;-72
2023/03/19 03:09:51;;;;;;;8.05;5.68;;;10.30;99.90;;;;;;2074842;28;20022;-72
2023/03/19 03:10:52;;;;;;;10.68;5.40;;;10.30;99.90;;;;;;2074646;28;20143;-72
2023/03/19 03:11:52;;;;;;;5.82;3.88;;;10.30;99.90;;;;;;2074578;28;20042;-72
2023/03/19 03:12:53;;;;;;;5.35;3.65;;;10.30;99.90;;;;;;2073595;28;20108;-72
2023/03/19 03:13:55;;;;;;;7.78;4.00;;;10.30;99.90;;;;;;2073383;28;20033;-72
2023/03/19 03:14:56;;;;;;;3.90;3.47;;;10.30;99.90;;;;;;2074514;28;20116;-72
2023/03/19 03:15:56;;;;;;;5.45;3.70;;;10.30;99.90;;;;;;2074564;28;20021;-72
2023/03/19 03:16:57;;;;;;;3.58;3.28;;;10.30;99.90;;;;;;2073647;28;20033;-72
2023/03/19 03:17:58;;;;;;;5.72;3.80;;;10.30;99.90;;;;;;2077723;28;20056;-72
2023/03/19 03:18:59;;;;;;;6.95;3.63;;;10.30;99.90;;;;;;2076242;28;20045;-72
2023/03/19 03:20:00;;;;;;;5.80;3.20;;;10.30;99.90;;;;;;2074181;28;20065;-72
2023/03/19 03:21:00;;;;;;;6.93;3.58;;;10.30;99.90;;;;;;2074621;28;20025;-72
2023/03/19 03:22:01;;;;;;;4.72;3.40;;;10.30;99.90;;;;;;2074891;28;20104;-72
2023/03/19 03:23:01;;;;;;;4.80;3.53;;;10.30;99.90;;;;;;2073117;28;20033;-72
2023/03/19 03:24:02;;;;;;;6.65;3.65;;;10.30;99.90;;;;;;2076332;28;20109;-72
2023/03/19 03:25:03;;;;;;;6.75;3.40;;;10.30;99.90;;;;;;2077540;28;20028;-72
2023/03/19 03:26:05;;;;;;;6.72;3.60;;;10.30;99.90;;;;;;2076460;28;20473;-72
2023/03/19 03:27:07;;;;;;;9.15;3.80;;;10.30;99.90;;;;;;2074741;28;20165;-72
2023/03/19 03:28:07;;;;;;;7.57;4.90;;;10.30;99.90;;;;;;2077409;28;20025;-72
2023/03/19 03:29:08;;;;;;;5.55;3.60;;;10.30;99.90;;;;;;2074330;28;20021;-72
2023/03/19 03:30:09;;;;;;;11.23;5.47;;;10.30;99.90;;;;;;2075139;28;20064;-72
2023/03/19 03:31:10;;;;;;;6.82;4.03;;;10.30;99.90;;;;;;2076861;28;20026;-72
2023/03/19 03:32:11;;;;;;;7.15;3.58;;;10.30;99.90;;;;;;2075422;28;20102;-72
2023/03/19 03:33:12;;;;;;;5.45;3.90;;;10.40;99.90;;;;;;2075599;28;20544;-72
2023/03/19 03:34:12;;;;;;;7.30;3.75;;;10.40;99.90;;;;;;2074331;28;20465;-72
2023/03/19 03:35:20;;;;;;;7.45;3.53;;;10.40;99.90;;;;;;2073419;28;20429;-72
2023/03/19 03:36:21;;;;;;;3.70;3.30;;;10.40;99.90;;;;;;2073431;28;20481;-72
2023/03/19 03:37:22;;;;;;;7.07;3.55;;;10.40;99.90;;;;;;2073996;28;20370;-72
2023/03/19 03:38:22;;;;;;;5.97;3.80;;;10.50;99.90;;;;;;2074721;28;20524;-72
2023/03/19 03:39:23;;;;;;;7.43;3.30;;;10.40;99.90;;;;;;2076834;28;20017;-72
2023/03/19 03:40:23;;;;;;;6.18;3.25;;;10.40;99.90;;;;;;2076990;28;20048;-72
2023/03/19 03:41:24;;;;;;;7.03;3.67;;;10.50;99.90;;;;;;2072323;28;20029;-72
2023/03/19 03:42:25;;;;;;;5.72;3.42;;;10.50;99.90;;;;;;2075467;28;20022;-72
2023/03/19 03:43:25;;;;;;;7.05;3.20;;;10.50;99.90;;;;;;2075639;28;20101;-72
2023/03/19 03:44:26;;;;;;;4.68;3.60;;;10.50;99.90;;;;;;2076071;28;20777;-72
2023/03/19 03:45:27;;;;;;;3.45;3.15;;;10.50;99.90;;;;;;2074350;28;20026;-72
2023/03/19 03:46:27;;;;;;;5.15;3.30;;;10.50;99.90;;;;;;2075121;28;20025;-72
2023/03/19 03:47:28;;;;;;;8.50;3.35;;;10.60;99.90;;;;;;2064786;28;20044;-72
2023/03/19 03:48:28;;;;;;;5.97;3.75;;;10.60;99.90;;;;;;2073820;28;20726;-72
2023/03/19 03:49:29;;;;;;;4.47;3.22;;;10.60;99.90;;;;;;2075006;28;20022;-72
2023/03/19 03:50:29;;;;;;;6.07;3.05;;;10.60;99.90;;;;;;2074542;28;20029;-72
2023/03/19 03:51:30;;;;;;;4.70;3.15;;;10.60;99.90;;;;;;2073670;28;20113;-72
2023/03/19 03:52:32;;;;;;;6.55;4.25;;;10.60;99.90;;;;;;2074561;28;22070;-72
2023/03/19 03:53:33;;;;;;;5.75;4.45;;;10.60;99.90;;;;;;2074065;28;20061;-72
2023/03/19 03:54:34;;;;;;;6.65;4.15;;;10.60;99.90;;;;;;2076274;28;20485;-72
2023/03/19 03:55:35;;;;;;;8.65;3.83;;;10.60;99.90;;;;;;2074686;28;20091;-72
2023/03/19 03:56:36;;;;;;;4.35;3.55;;;10.60;99.90;;;;;;2075044;28;20105;-72
2023/03/19 03:57:36;;;;;;;8.82;3.65;;;10.60;99.90;;;;;;2073970;28;20053;-72
2023/03/19 03:58:37;;;;;;;6.22;3.50;;;10.60;99.90;;;;;;2077655;28;20058;-72
2023/03/19 03:59:37;;;;;;;8.07;3.55;;;10.70;99.90;;;;;;2078596;28;20553;-72
2023/03/19 04:00:39;;;;;;;6.22;4.30;;;10.70;99.90;;;;;;2072112;28;20453;-72
2023/03/19 04:01:39;;;;;;;6.38;3.60;;;10.70;99.90;;;;;;2074650;28;20109;-72
2023/03/19 04:02:40;;;;;;;5.75;3.45;;;10.70;99.90;;;;;;2074779;28;20068;-72
2023/03/19 04:03:41;;;;;;;4.97;3.03;;;10.70;99.90;;;;;;2075480;28;20084;-72
2023/03/19 04:04:42;;;;;;;6.22;3.60;;;10.70;99.90;;;;;;2071883;28;20494;-72
2023/03/19 04:05:43;;;;;;;8.43;3.53;;;10.70;99.90;;;;;;2078565;28;20096;-72
2023/03/19 04:06:44;;;;;;;5.47;3.25;;;10.70;99.90;;;;;;2077473;28;20033;-72
2023/03/19 04:07:45;;;;;;;5.88;4.25;;;10.70;99.90;;;;;;2077270;28;20032;-72
2023/03/19 04:08:46;;;;;;;7.82;4.22;;;10.70;99.90;;;;;;2074364;28;21181;-72
2023/03/19 04:09:48;;;;;;;9.43;4.28;;;10.70;99.90;;;;;;2074908;28;20438;-72
2023/03/19 04:10:48;;;;;;;7.30;4.05;;;10.80;99.90;;;;;;2074191;28;20029;-72
2023/03/19 04:11:49;;;;;;;8.05;3.63;;;10.80;99.90;;;;;;2075369;28;20033;-72
2023/03/19 04:12:49;;;;;;;8.27;3.42;;;10.70;99.90;;;;;;2074713;28;20034;-72
2023/03/19 04:13:51;;;;;;;5.63;2.80;;;10.80;99.90;;;;;;2072195;28;20061;-72
2023/03/19 04:14:51;;;;;;;5.07;3.17;;;10.80;99.90;;;;;;2075298;28;20751;-72
2023/03/19 04:15:53;;;;;;;5.72;2.60;;;10.80;99.90;;;;;;2073952;28;20134;-72
2023/03/19 04:16:53;;;;;;;4.28;2.97;;;10.80;99.90;;;;;;2075777;28;20377;-72
2023/03/19 04:17:54;;;;;;;6.25;2.70;;;10.80;99.90;;;;;;2075799;28;20048;-72
2023/03/19 04:18:54;;;;;;;9.82;4.32;;;10.80;99.90;;;;;;2073149;28;20026;-72
2023/03/19 04:19:56;;;;;;;7.70;3.90;;;10.80;99.90;;;;;;2073277;28;20021;-72
2023/03/19 04:20:56;;;;;;;10.20;3.50;;;10.80;99.90;;;;;;2074825;28;20025;-72
2023/03/19 04:21:58;;;;;;;4.78;2.80;;;10.80;99.90;;;;;;2074293;28;20018;-72
2023/03/19 04:22:59;;;;;;;6.53;2.90;;;10.80;99.90;;;;;;2075403;28;20010;-72
2023/03/19 04:24:01;;;;;;;5.32;2.90;;;10.80;99.90;;;;;;2075665;28;20018;-72
2023/03/19 04:25:01;;;;;;;4.65;2.75;;;10.90;99.90;;;;;;2075493;28;20025;-72
2023/03/19 04:26:05;;;;;;;6.30;3.08;;;10.90;99.90;;;;;;2073187;28;20032;-72
2023/03/19 04:27:07;;;;;;;4.88;3.15;;;10.90;99.90;;;;;;2074293;28;20030;-72
2023/03/19 04:28:07;;;;;;;8.95;4.07;;;10.90;99.90;;;;;;2074789;28;20028;-72
2023/03/19 04:29:08;;;;;;;6.43;3.00;;;10.90;99.90;;;;;;2073943;28;20031;-72
2023/03/19 04:30:10;;;;;;;7.63;3.33;;;10.90;99.90;;;;;;2076012;28;20025;-72
2023/03/19 04:31:11;;;;;;;5.28;2.85;;;10.90;99.90;;;;;;2076279;28;20049;-72
2023/03/19 04:32:11;;;;;;;6.10;3.08;;;10.90;99.90;;;;;;2076204;28;20033;-72
2023/03/19 04:33:12;;;;;;;3.90;2.67;;;10.90;99.90;;;;;;2074057;28;20060;-72
2023/03/19 04:34:12;;;;;;;6.32;3.28;;;10.90;99.90;;;;;;2074873;28;20085;-72
2023/03/19 04:35:13;;;;;;;5.07;2.92;;;10.90;99.90;;;;;;2074286;28;20104;-72
2023/03/19 04:36:14;;;;;;;4.38;2.70;;;10.90;99.90;;;;;;2073598;28;20036;-72
2023/03/19 04:37:14;;;;;;;3.42;2.38;;;10.90;99.90;;;;;;2074876;28;20041;-72
2023/03/19 04:38:15;;;;;;;16.73;6.82;;;10.90;99.90;;;;;;2072832;28;20036;-72
2023/03/19 04:39:16;;;;;;;12.18;6.03;;;11.00;99.90;;;;;;2074138;28;20339;-72
2023/03/19 04:40:17;;;;;;;8.40;4.28;;;10.90;99.90;;;;;;2074383;28;20065;-72
2023/03/19 04:41:17;;;;;;;6.55;3.22;;;11.00;99.90;;;;;;2072440;28;20033;-72
2023/03/19 04:42:18;;;;;;;6.72;3.00;;;11.00;99.90;;;;;;2076036;28;20091;-72
2023/03/19 04:43:19;;;;;;;3.83;2.88;;;11.00;99.90;;;;;;2075855;28;20031;-72
2023/03/19 04:44:20;;;;;;;6.72;2.47;;;11.00;99.90;;;;;;2077390;28;20029;-72
2023/03/19 04:45:21;;;;;;;4.35;2.53;;;11.00;99.90;;;;;;2072703;28;20136;-72
2023/03/19 04:46:21;;;;;;;5.18;2.85;;;10.90;99.90;;;;;;2073320;28;20022;-72
2023/03/19 04:47:22;;;;;;;4.63;2.63;;;11.00;99.90;;;;;;2074078;28;20034;-72
2023/03/19 04:48:22;;;;;;;3.33;2.03;;;11.00;99.90;;;;;;2076085;28;20068;-72
2023/03/19 04:49:23;;;;;;;5.72;2.60;;;11.00;99.90;;;;;;2074817;28;20076;-72
2023/03/19 04:50:24;;;;;;;4.45;2.53;;;11.00;99.90;;;;;;2072585;28;20899;-72
2023/03/19 04:51:25;;;;;;;3.47;2.25;;;11.00;99.90;;;;;;2074831;28;20100;-72
2023/03/19 04:52:25;;;;;;;2.88;2.47;;;11.00;99.90;;;;;;2075326;28;20039;-72
2023/03/19 04:53:26;;;;;;;3.55;2.72;;;11.00;99.90;;;;;;2074988;28;20022;-72
2023/03/19 04:54:27;;;;;;;5.25;2.60;;;11.00;99.90;;;;;;2074802;28;20747;-72
2023/03/19 04:55:27;;;;;;;4.13;2.53;;;11.00;99.90;;;;;;2073720;28;20025;-72
2023/03/19 04:56:28;;;;;;;4.95;2.40;;;11.00;99.90;;;;;;2072370;28;20101;-72
2023/03/19 04:57:28;;;;;;;3.25;2.40;;;11.00;99.90;;;;;;2073091;28;20022;-72
2023/03/19 04:58:29;;;;;;;7.07;2.67;;;11.00;99.90;;;;;;2075967;28;20040;-72
2023/03/19 04:59:30;;;;;;;6.43;3.08;;;11.00;99.90;;;;;;2074921;28;20145;-72
2023/03/19 05:00:30;;;;;;;7.82;2.95;;;11.00;99.90;;;;;;2073504;28;20053;-72
2023/03/19 05:01:31;;;;;;;4.25;2.60;;;11.00;99.90;;;;;;2074236;28;20022;-72
2023/03/19 05:02:32;;;;;;;7.78;2.67;;;11.00;99.90;;;;;;2073369;28;20017;-72
2023/03/19 05:03:32;;;;;;;5.00;2.67;;;11.00;99.90;;;;;;2075061;28;20401;-72
2023/03/19 05:04:33;;;;;;;5.80;2.65;;;11.00;99.90;;;;;;2077781;28;20380;-72
2023/03/19 05:05:33;;;;;;;5.45;2.65;;;11.00;99.90;;;;;;2078761;28;20018;-72
2023/03/19 05:06:35;;;;;;;4.45;2.72;;;11.00;99.90;;;;;;2075184;28;20028;-72
2023/03/19 05:07:36;;;;;;;4.65;2.40;;;11.00;99.90;;;;;;2077424;28;20036;-72
2023/03/19 05:08:37;;;;;;;4.13;2.60;;;11.00;99.90;;;;;;2077609;28;20455;-72
2023/03/19 05:09:38;;;;;;;6.45;2.83;;;11.10;99.90;;;;;;2077791;28;20394;-72
2023/03/19 05:10:39;;;;;;;6.32;3.13;;;11.10;99.90;;;;;;2077640;28;20077;-72
2023/03/19 05:11:39;;;;;;;4.80;2.70;;;11.10;99.90;;;;;;2077254;28;20022;-72
2023/03/19 05:12:40;;;;;;;5.97;2.53;;;11.10;99.90;;;;;;2076261;28;20037;-72
2023/03/19 05:13:40;;;;;;;4.72;2.58;;;11.10;99.90;;;;;;2073990;28;20017;-72
2023/03/19 05:14:41;;;;;;;4.90;2.95;;;11.10;99.90;;;;;;2076541;28;20764;-72
2023/03/19 05:15:43;;;;;;;5.13;2.60;;;11.10;99.90;;;;;;2074779;28;20014;-72
2023/03/19 05:16:44;;;;;;;3.70;2.63;;;11.20;99.90;;;;;;2075117;28;20935;-72
2023/03/19 05:17:44;;;;;;;4.10;2.75;;;11.20;99.90;;;;;;2075220;28;20044;-72